Time;durP1;ratioP1;P1;durP2;ratioP2;P2;SDS_P1;SDS_P2;PMS_P1;PMS_P2;Temp;Humidity;BMP_temperature;BMP_pressure;BME280_temperature;BME280_humidity;BME280_pressure;Samples;Min_cycle;Max_cycle;Signal;HPM_P1;HPM_P2
2022/10/10 00:00:25;;;;;;;;;;;;;;;16.42;66.50;101127.66;1256071;23;661;-74
2022/10/10 00:01:16;;;;;;;;;;;;;;;16.42;66.59;101128.50;1253315;23;1196;-75
2022/10/10 00:02:06;;;;;;;;;;;;;;;16.43;66.04;101132.06;1256016;23;661;-75
2022/10/10 00:02:56;;;;;;;;;;;;;;;16.42;66.36;101127.66;1255238;23;653;-75
2022/10/10 00:03:47;;;;;;;;;;;;;;;16.42;66.37;101128.50;1256237;23;649;-76
2022/10/10 00:04:37;;;;;;;;;;;;;;;16.42;66.44;101128.50;1255909;23;641;-76
2022/10/10 00:05:28;;;;;;;;;;;;;;;16.42;66.58;101123.13;1253493;23;796;-75
2022/10/10 00:06:18;;;;;;;;;;;;;;;16.43;66.15;101123.97;1253794;23;689;-76
2022/10/10 00:07:08;;;;;;;;;;;;;;;16.40;66.33;101126.94;1256179;23;653;-76
2022/10/10 00:07:59;;;;;;;;;;;;;;;16.41;66.77;101124.09;1255881;23;606;-76
2022/10/10 00:08:49;;;;;;;;;;;;;;;16.41;66.01;101125.94;1256074;23;684;-76
2022/10/10 00:09:40;;;;;;;;;;;;;;;16.41;66.61;101120.56;1256078;23;685;-76
2022/10/10 00:10:30;;;;;;;;;;;;;;;16.41;66.89;101125.94;1247294;23;634;-76
2022/10/10 00:11:21;;;;;;;;;;;;;;;16.40;66.42;101119.72;1248970;23;748;-76
2022/10/10 00:12:11;;;;;;;;;;;;;;;16.41;66.23;101124.09;1254971;23;633;-76
2022/10/10 00:13:01;;;;;;;;;;;;;;;16.41;66.75;101121.41;1255279;23;735;-76
2022/10/10 00:13:52;;;;;;;;;;;;;;;16.40;66.68;101122.41;1255548;23;634;-76
2022/10/10 00:14:42;;;;;;;;;;;;;;;16.40;66.64;101118.84;1256043;23;633;-76
2022/10/10 00:15:33;;;;;;;;;;;;;;;16.40;66.69;101121.53;1256066;23;606;-76
2022/10/10 00:16:23;;;;;;;;;;;;;;;16.40;66.86;101125.09;1255961;23;759;-76
2022/10/10 00:17:14;;;;;;;;;;;;;;;16.38;66.34;101116.28;1256340;23;649;-76
2022/10/10 00:18:04;;;;;;;;;;;;;;;16.39;66.11;101118.00;1256517;23;685;-75
2022/10/10 00:18:54;;;;;;;;;;;;;;;16.40;66.47;101121.53;1256498;23;686;-75
2022/10/10 00:19:45;;;;;;;;;;;;;;;16.38;66.46;101116.28;1253886;23;662;-75
2022/10/10 00:20:35;;;;;;;;;;;;;;;16.37;66.56;101119.09;1256382;23;630;-75
2022/10/10 00:21:26;;;;;;;;;;;;;;;16.38;66.81;101121.66;1256512;23;641;-75
2022/10/10 00:22:16;;;;;;;;;;;;;;;16.40;66.79;101114.31;1256429;23;602;-75
2022/10/10 00:23:06;;;;;;;;;;;;;;;16.40;66.79;101118.84;1256438;23;616;-75
2022/10/10 00:23:57;;;;;;;;;;;;;;;16.41;66.59;101112.50;1256545;23;649;-75
2022/10/10 00:24:47;;;;;;;;;;;;;;;16.41;66.80;101118.72;1256299;23;1055;-75
2022/10/10 00:25:38;;;;;;;;;;;;;;;16.40;66.71;101111.63;1253779;23;607;-75
2022/10/10 00:26:28;;;;;;;;;;;;;;;16.41;66.64;101117.88;1254068;23;681;-75
2022/10/10 00:27:19;;;;;;;;;;;;;;;16.41;66.88;101116.03;1256431;23;645;-75
2022/10/10 00:28:09;;;;;;;;;;;;;;;16.42;66.35;101111.50;1253337;23;600;-75
2022/10/10 00:28:59;;;;;;;;;;;;;;;16.40;66.74;101105.41;1256659;23;606;-76
2022/10/10 00:29:50;;;;;;;;;;;;;;;16.40;66.54;101108.09;1254032;23;646;-74
2022/10/10 00:30:40;;;;;;;;;;;;;;;16.39;66.48;101106.38;1247901;23;630;-74
2022/10/10 00:31:31;;;;;;;;;;;;;;;16.40;66.53;101108.94;1249061;23;619;-75
2022/10/10 00:32:21;;;;;;;;;;;;;;;16.39;66.62;101106.38;1254663;23;619;-75
2022/10/10 00:33:12;;;;;;;;;;;;;;;16.39;66.65;101109.94;1253927;23;631;-75
2022/10/10 00:34:02;;;;;;;;;;;;;;;16.40;66.32;101102.72;1256361;23;692;-75
2022/10/10 00:34:52;;;;;;;;;;;;;;;16.39;66.63;101106.38;1255653;23;716;-75
2022/10/10 00:35:43;;;;;;;;;;;;;;;16.39;66.59;101111.78;1256498;23;669;-75
2022/10/10 00:36:33;;;;;;;;;;;;;;;16.38;66.68;101105.53;1256417;23;626;-74
2022/10/10 00:37:24;;;;;;;;;;;;;;;16.40;66.75;101108.09;1253717;23;643;-75
2022/10/10 00:38:14;;;;;;;;;;;;;;;16.40;66.23;101108.09;1256422;23;637;-76
2022/10/10 00:39:05;;;;;;;;;;;;;;;16.39;66.79;101101.00;1255534;23;646;-75
2022/10/10 00:39:55;;;;;;;;;;;;;;;16.36;66.71;101098.56;1256276;23;606;-75
2022/10/10 00:40:46;;;;;;;;;;;;;;;16.37;66.67;101097.59;1256446;23;653;-75
2022/10/10 00:41:36;;;;;;;;;;;;;;;16.39;66.54;101106.38;1256334;23;626;-75
2022/10/10 00:42:26;;;;;;;;;;;;;;;16.38;66.46;101108.22;1254263;23;622;-75
2022/10/10 00:43:17;;;;;;;;;;;;;;;16.37;66.72;101100.28;1253802;23;625;-75
2022/10/10 00:44:07;;;;;;;;;;;;;;;16.35;67.02;101099.56;1256289;23;649;-76
2022/10/10 00:44:58;;;;;;;;;;;;;;;16.37;66.68;101102.97;1256482;23;633;-75
2022/10/10 00:45:48;;;;;;;;;;;;;;;16.38;66.74;101104.69;1254101;23;650;-75
2022/10/10 00:46:39;;;;;;;;;;;;;;;16.38;66.31;101099.31;1256287;23;685;-75
2022/10/10 00:47:29;;;;;;;;;;;;;;;16.38;66.89;101104.69;1256200;23;704;-75
2022/10/10 00:48:19;;;;;;;;;;;;;;;16.36;66.47;101104.81;1256461;23;645;-75
2022/10/10 00:49:10;;;;;;;;;;;;;;;16.36;66.39;101102.13;1256330;23;614;-76
2022/10/10 00:50:00;;;;;;;;;;;;;;;16.36;66.83;101101.25;1256343;23;657;-76
2022/10/10 00:50:51;;;;;;;;;;;;;;;16.36;66.84;101095.88;1253828;23;641;-76
2022/10/10 00:51:41;;;;;;;;;;;;;;;16.35;66.42;101099.56;1256279;23;819;-75
2022/10/10 00:52:32;;;;;;;;;;;;;;;16.36;66.51;101095.88;1253808;23;599;-74
2022/10/10 00:53:22;;;;;;;;;;;;;;;16.36;66.54;101098.56;1256353;23;673;-75
2022/10/10 00:54:12;;;;;;;;;;;;;;;16.34;66.23;101093.31;1254035;23;634;-75
2022/10/10 00:55:03;;;;;;;;;;;;;;;16.34;66.44;101098.69;1256216;23;1918;-73
2022/10/10 00:55:53;;;;;;;;;;;;;;;16.31;66.47;101089.06;1256263;23;634;-74
2022/10/10 00:56:44;;;;;;;;;;;;;;;16.35;66.78;101092.34;1256365;23;598;-74
2022/10/10 00:57:34;;;;;;;;;;;;;;;16.35;66.70;101094.19;1255595;23;645;-74
2022/10/10 00:58:24;;;;;;;;;;;;;;;16.35;66.59;101083.41;1256346;23;716;-73
2022/10/10 00:59:15;;;;;;;;;;;;;;;16.35;66.49;101084.28;1256357;23;602;-74
2022/10/10 01:00:05;;;;;;;;;;;;;;;16.33;66.91;101092.47;1256441;23;661;-74
2022/10/10 01:00:56;;;;;;;;;;;;;;;16.31;66.80;101089.06;1256210;23;1036;-76
2022/10/10 01:01:46;;;;;;;;;;;;;;;16.32;66.66;101090.75;1254021;23;647;-75
2022/10/10 01:02:37;;;;;;;;;;;;;;;16.33;66.49;101086.22;1254712;23;689;-75
2022/10/10 01:03:27;;;;;;;;;;;;;;;16.33;66.36;101087.09;1256192;23;607;-74
2022/10/10 01:04:18;;;;;;;;;;;;;;;16.32;66.80;101085.38;1256417;23;609;-75
2022/10/10 01:05:08;;;;;;;;;;;;;;;16.33;66.56;101084.41;1256430;23;656;-75
2022/10/10 01:05:59;;;;;;;;;;;;;;;16.34;66.37;101079.88;1256486;23;593;-75
2022/10/10 01:06:49;;;;;;;;;;;;;;;16.35;66.49;101084.28;1253731;23;680;-75
2022/10/10 01:07:39;;;;;;;;;;;;;;;16.35;66.66;101080.72;1254121;23;621;-74
2022/10/10 01:08:30;;;;;;;;;;;;;;;16.32;66.77;101080.00;1256280;23;680;-74
2022/10/10 01:09:20;;;;;;;;;;;;;;;16.31;66.89;101078.28;1256231;23;633;-75
2022/10/10 01:10:11;;;;;;;;;;;;;;;16.31;67.00;101080.97;1256465;23;646;-75
2022/10/10 01:11:01;;;;;;;;;;;;;;;16.32;66.45;101074.63;1256301;23;1153;-75
2022/10/10 01:11:51;;;;;;;;;;;;;;;16.33;66.10;101083.53;1255922;23;665;-75
2022/10/10 01:12:42;;;;;;;;;;;;;;;16.32;66.56;101077.31;1256286;23;637;-75
2022/10/10 01:13:32;;;;;;;;;;;;;;;16.32;66.10;101074.63;1253959;23;762;-74
2022/10/10 01:14:23;;;;;;;;;;;;;;;16.33;66.51;101081.72;1253714;23;647;-75
2022/10/10 01:15:13;;;;;;;;;;;;;;;16.32;66.51;101074.63;1256108;23;1897;-75
2022/10/10 01:16:04;;;;;;;;;;;;;;;16.31;66.95;101077.44;1256405;23;630;-74
2022/10/10 01:16:54;;;;;;;;;;;;;;;16.32;66.72;101074.63;1256440;23;661;-75
2022/10/10 01:17:44;;;;;;;;;;;;;;;16.30;66.40;101073.91;1256206;23;642;-75
2022/10/10 01:18:35;;;;;;;;;;;;;;;16.31;66.59;101074.75;1256401;23;719;-75
2022/10/10 01:19:25;;;;;;;;;;;;;;;16.30;66.17;101073.91;1256246;23;634;-75
2022/10/10 01:20:16;;;;;;;;;;;;;;;16.30;66.91;101073.91;1256472;23;657;-75
2022/10/10 01:21:08;;;;;;;;;;;;;;;16.31;66.17;101074.75;1253699;23;630;-74
2022/10/10 01:21:58;;;;;;;;;;;;;;;16.26;66.80;101077.84;1255549;23;638;-75
2022/10/10 01:22:48;;;;;;;;;;;;;;;16.27;66.32;101076.88;1256302;23;610;-75
2022/10/10 01:23:39;;;;;;;;;;;;;;;16.26;66.40;101069.78;1256297;23;649;-75
2022/10/10 01:24:29;;;;;;;;;;;;;;;16.30;66.49;101073.91;1256339;23;630;-75
2022/10/10 01:25:20;;;;;;;;;;;;;;;16.31;66.46;101069.38;1256355;23;669;-75
2022/10/10 01:26:10;;;;;;;;;;;;;;;16.29;66.38;101072.22;1255722;23;704;-75
2022/10/10 01:27:01;;;;;;;;;;;;;;;16.30;66.31;101065.00;1255327;23;542;-75
2022/10/10 01:27:51;;;;;;;;;;;;;;;16.30;66.66;101065.81;1256148;23;657;-75
2022/10/10 01:28:41;;;;;;;;;;;;;;;16.29;66.32;101071.38;1256279;23;665;-76
2022/10/10 01:29:32;;;;;;;;;;;;;;;16.30;66.08;101065.81;1256348;23;665;-75
2022/10/10 01:30:22;;;;;;;;;;;;;;;16.31;66.37;101069.38;1256363;23;657;-75
2022/10/10 01:31:13;;;;;;;;;;;;;;;16.30;66.96;101065.00;1253747;23;623;-76
2022/10/10 01:32:03;;;;;;;;;;;;;;;16.28;66.43;101066.97;1256253;23;700;-76
2022/10/10 01:32:54;;;;;;;;;;;;;;;16.27;66.42;101066.13;1255485;23;665;-76
2022/10/10 01:33:44;;;;;;;;;;;;;;;16.26;66.81;101064.41;1256296;23;669;-76
2022/10/10 01:34:35;;;;;;;;;;;;;;;16.25;66.56;101062.69;1253640;23;724;-76
2022/10/10 01:35:25;;;;;;;;;;;;;;;16.27;66.35;101066.13;1256172;23;1889;-75
2022/10/10 01:36:16;;;;;;;;;;;;;;;16.26;66.87;101067.09;1256308;23;681;-76
2022/10/10 01:37:06;;;;;;;;;;;;;;;16.27;66.53;101059.88;1256319;23;630;-76
2022/10/10 01:37:56;;;;;;;;;;;;;;;16.27;66.20;101049.97;1254008;23;670;-76
2022/10/10 01:38:49;;;;;;;;;;;;;;;16.26;66.84;101052.81;1256227;23;623;-76
2022/10/10 01:39:39;;;;;;;;;;;;;;;16.24;66.38;101055.63;1255532;23;693;-76
2022/10/10 01:40:30;;;;;;;;;;;;;;;16.26;66.43;101050.97;1256305;23;661;-76
2022/10/10 01:41:20;;;;;;;;;;;;;;;16.28;66.78;101048.16;1256186;23;610;-76
2022/10/10 01:42:11;;;;;;;;;;;;;;;16.27;66.97;101039.22;1256297;23;601;-76
2022/10/10 01:43:01;;;;;;;;;;;;;;;16.25;66.14;101041.19;1256348;23;732;-76
2022/10/10 01:43:52;;;;;;;;;;;;;;;16.25;66.63;101051.94;1255499;23;823;-76
2022/10/10 01:44:42;;;;;;;;;;;;;;;16.27;66.70;101055.38;1256102;23;673;-76
2022/10/10 01:45:32;;;;;;;;;;;;;;;16.27;66.53;101051.81;1256345;23;624;-76
2022/10/10 01:46:23;;;;;;;;;;;;;;;16.27;66.43;101044.59;1256364;23;838;-77
2022/10/10 01:47:13;;;;;;;;;;;;;;;16.26;66.14;101045.59;1256174;23;710;-77
2022/10/10 01:48:04;;;;;;;;;;;;;;;16.26;66.29;101045.59;1256341;23;621;-76
2022/10/10 01:48:54;;;;;;;;;;;;;;;16.28;66.34;101037.38;1253838;23;685;-76
2022/10/10 01:49:45;;;;;;;;;;;;;;;16.28;66.47;101040.06;1256226;23;637;-76
2022/10/10 01:50:35;;;;;;;;;;;;;;;16.26;66.49;101039.34;1256285;23;668;-76
2022/10/10 01:51:25;;;;;;;;;;;;;;;16.27;66.59;101049.97;1254005;23;606;-76
2022/10/10 01:52:16;;;;;;;;;;;;;;;16.27;66.20;101039.22;1256316;23;724;-77
2022/10/10 01:53:07;;;;;;;;;;;;;;;16.27;66.10;101041.91;1256131;23;648;-76
2022/10/10 01:53:57;;;;;;;;;;;;;;;16.25;66.29;101038.50;1247734;23;630;-76
2022/10/10 01:54:48;;;;;;;;;;;;;;;16.25;66.56;101041.19;1247433;23;670;-76
2022/10/10 01:55:38;;;;;;;;;;;;;;;16.24;66.04;101039.47;1254551;23;673;-76
2022/10/10 01:56:29;;;;;;;;;;;;;;;16.26;66.59;101042.91;1253551;23;665;-76
2022/10/10 01:57:19;;;;;;;;;;;;;;;16.27;66.36;101041.06;1256188;23;696;-76
2022/10/10 01:58:10;;;;;;;;;;;;;;;16.25;66.53;101034.97;1255405;23;700;-76
2022/10/10 01:59:00;;;;;;;;;;;;;;;16.27;65.78;101035.69;1256153;23;594;-76
2022/10/10 01:59:50;;;;;;;;;;;;;;;16.24;66.21;101034.09;1256259;23;621;-76
2022/10/10 02:00:41;;;;;;;;;;;;;;;16.25;66.59;101041.19;1256497;23;633;-75
2022/10/10 02:01:31;;;;;;;;;;;;;;;16.25;66.51;101035.81;1256325;23;626;-75
2022/10/10 02:02:22;;;;;;;;;;;;;;;16.23;66.81;101037.78;1255983;23;603;-75
2022/10/10 02:03:12;;;;;;;;;;;;;;;16.23;66.44;101048.53;1256031;23;633;-75
2022/10/10 02:04:03;;;;;;;;;;;;;;;16.23;66.12;101036.91;1256280;23;747;-74
2022/10/10 02:04:53;;;;;;;;;;;;;;;16.24;66.23;101039.47;1256261;23;601;-75
2022/10/10 02:05:43;;;;;;;;;;;;;;;16.25;66.13;101038.50;1256162;23;669;-76
2022/10/10 02:06:34;;;;;;;;;;;;;;;16.24;66.17;101044.84;1256297;23;1023;-76
2022/10/10 02:07:24;;;;;;;;;;;;;;;16.24;66.11;101034.09;1256245;23;684;-76
2022/10/10 02:08:15;;;;;;;;;;;;;;;16.23;66.55;101027.03;1256121;23;632;-76
2022/10/10 02:09:06;;;;;;;;;;;;;;;16.21;66.68;101028.97;1255445;23;649;-76
2022/10/10 02:09:56;;;;;;;;;;;;;;;16.23;66.67;101032.41;1255790;23;653;-76
2022/10/10 02:10:46;;;;;;;;;;;;;;;16.24;66.15;101022.50;1256136;23;634;-76
2022/10/10 02:11:37;;;;;;;;;;;;;;;16.24;66.35;101028.72;1256159;23;665;-76
2022/10/10 02:12:27;;;;;;;;;;;;;;;16.23;66.39;101027.03;1256246;23;723;-76
2022/10/10 02:13:18;;;;;;;;;;;;;;;16.24;66.75;101028.72;1256271;23;661;-76
2022/10/10 02:14:08;;;;;;;;;;;;;;;16.22;66.45;101025.31;1256171;23;617;-76
2022/10/10 02:14:59;;;;;;;;;;;;;;;16.24;66.71;101025.19;1256078;23;1957;-76
2022/10/10 02:15:49;;;;;;;;;;;;;;;16.23;66.42;101027.03;1256200;23;621;-76
2022/10/10 02:16:39;;;;;;;;;;;;;;;16.24;66.74;101022.50;1253867;23;685;-75
2022/10/10 02:17:30;;;;;;;;;;;;;;;16.24;67.09;101017.13;1256295;23;645;-75
2022/10/10 02:18:20;;;;;;;;;;;;;;;16.25;66.50;101026.88;1256199;23;648;-75
2022/10/10 02:19:11;;;;;;;;;;;;;;;16.23;67.12;101013.56;1256221;23;622;-75
2022/10/10 02:20:01;;;;;;;;;;;;;;;16.24;67.04;101017.97;1256090;23;646;-75
2022/10/10 02:20:51;;;;;;;;;;;;;;;16.24;67.11;101014.44;1256078;23;610;-75
2022/10/10 02:21:42;;;;;;;;;;;;;;;16.23;67.13;101020.78;1253619;23;630;-75
2022/10/10 02:22:32;;;;;;;;;;;;;;;16.22;66.96;101016.41;1253738;23;630;-75
2022/10/10 02:23:23;;;;;;;;;;;;;;;16.21;66.76;101012.84;1253533;23;669;-76
2022/10/10 02:24:13;;;;;;;;;;;;;;;16.23;66.88;101010.03;1255738;23;590;-76
2022/10/10 02:25:04;;;;;;;;;;;;;;;16.22;66.94;101008.31;1256238;23;601;-75
2022/10/10 02:25:54;;;;;;;;;;;;;;;16.21;66.86;101009.31;1256094;23;641;-76
2022/10/10 02:26:44;;;;;;;;;;;;;;;16.20;66.86;101010.28;1256177;23;638;-75
2022/10/10 02:27:35;;;;;;;;;;;;;;;16.21;66.74;101010.16;1253529;23;658;-75
2022/10/10 02:28:25;;;;;;;;;;;;;;;16.20;66.97;101010.28;1256042;23;646;-76
2022/10/10 02:29:16;;;;;;;;;;;;;;;16.20;67.27;101005.75;1256264;23;618;-75
2022/10/10 02:30:06;;;;;;;;;;;;;;;16.21;67.00;101010.16;1256252;23;752;-75
2022/10/10 02:30:57;;;;;;;;;;;;;;;16.22;66.94;101003.81;1256325;23;661;-75
2022/10/10 02:31:47;;;;;;;;;;;;;;;16.20;66.79;101011.16;1256212;23;665;-75
2022/10/10 02:32:38;;;;;;;;;;;;;;;16.20;67.07;101005.75;1253917;23;669;-75
2022/10/10 02:33:28;;;;;;;;;;;;;;;16.22;66.42;101001.09;1256265;23;665;-75
2022/10/10 02:34:18;;;;;;;;;;;;;;;16.20;66.24;101003.06;1256167;23;645;-76
2022/10/10 02:35:09;;;;;;;;;;;;;;;16.18;66.81;101007.72;1256264;23;1921;-76
2022/10/10 02:36:00;;;;;;;;;;;;;;;16.19;66.83;101006.75;1256179;23;621;-75
2022/10/10 02:36:50;;;;;;;;;;;;;;;16.20;66.88;101000.38;1255402;23;618;-76
2022/10/10 02:37:40;;;;;;;;;;;;;;;16.19;66.86;100998.69;1256117;23;609;-75
2022/10/10 02:38:31;;;;;;;;;;;;;;;16.18;66.82;100996.13;1253550;23;634;-75
2022/10/10 02:39:21;;;;;;;;;;;;;;;16.17;66.94;100997.97;1256115;23;726;-75
2022/10/10 02:40:12;;;;;;;;;;;;;;;16.20;66.86;100997.69;1256158;23;646;-75
2022/10/10 02:41:03;;;;;;;;;;;;;;;16.19;67.17;100996.00;1256189;23;660;-75
2022/10/10 02:41:53;;;;;;;;;;;;;;;16.17;66.79;100995.28;1253642;23;646;-75
2022/10/10 02:42:43;;;;;;;;;;;;;;;16.19;66.62;100998.69;1256196;23;685;-75
2022/10/10 02:43:34;;;;;;;;;;;;;;;16.18;66.80;100986.22;1255427;23;657;-75
2022/10/10 02:44:24;;;;;;;;;;;;;;;16.18;67.08;100986.22;1256119;23;571;-75
2022/10/10 02:45:15;;;;;;;;;;;;;;;16.20;66.83;100988.78;1256191;23;767;-75
2022/10/10 02:46:05;;;;;;;;;;;;;;;16.18;66.64;100980.84;1253692;23;650;-75
2022/10/10 02:46:56;;;;;;;;;;;;;;;16.20;66.98;100983.41;1253859;23;666;-74
2022/10/10 02:47:46;;;;;;;;;;;;;;;16.18;66.62;100980.84;1247323;23;670;-75
2022/10/10 02:48:36;;;;;;;;;;;;;;;16.17;66.67;100984.50;1249082;23;681;-76
2022/10/10 02:49:27;;;;;;;;;;;;;;;16.16;66.87;100977.44;1255078;23;747;-74
2022/10/10 02:50:17;;;;;;;;;;;;;;;16.18;67.07;100978.16;1256084;23;637;-75
2022/10/10 02:51:08;;;;;;;;;;;;;;;16.19;66.47;100977.16;1256071;23;684;-76
2022/10/10 02:51:58;;;;;;;;;;;;;;;16.15;67.25;100981.09;1253436;23;614;-75
2022/10/10 02:52:48;;;;;;;;;;;;;;;16.16;66.35;100979.25;1256096;23;633;-76
2022/10/10 02:53:39;;;;;;;;;;;;;;;16.17;66.78;100984.50;1256155;23;677;-74
2022/10/10 02:54:29;;;;;;;;;;;;;;;16.14;66.78;100987.47;1253755;23;665;-74
2022/10/10 02:55:20;;;;;;;;;;;;;;;16.14;67.13;100984.78;1255155;23;1919;-74
2022/10/10 02:56:10;;;;;;;;;;;;;;;16.14;66.74;100983.91;1256165;23;634;-75
2022/10/10 02:57:01;;;;;;;;;;;;;;;16.15;67.06;100988.31;1256196;23;630;-74
2022/10/10 02:57:52;;;;;;;;;;;;;;;16.14;66.42;100983.91;1256047;23;656;-74
2022/10/10 02:58:42;;;;;;;;;;;;;;;16.17;66.79;100980.97;1255230;23;622;-74
2022/10/10 02:59:32;;;;;;;;;;;;;;;16.16;66.66;100992.72;1256151;23;661;-74
2022/10/10 03:00:23;;;;;;;;;;;;;;;16.18;66.67;100985.38;1256163;23;661;-74
2022/10/10 03:01:13;;;;;;;;;;;;;;;16.15;66.42;100986.47;1255916;23;1284;-75
2022/10/10 03:02:05;;;;;;;;;;;;;;;16.16;66.64;100980.13;1256284;23;594;-75
2022/10/10 03:02:55;;;;;;;;;;;;;;;16.16;66.78;100984.63;1255437;23;642;-75
2022/10/10 03:03:46;;;;;;;;;;;;;;;16.17;66.20;100976.44;1255977;23;673;-76
2022/10/10 03:04:36;;;;;;;;;;;;;;;16.16;66.42;100977.44;1253610;23;595;-76
2022/10/10 03:05:26;;;;;;;;;;;;;;;16.15;67.11;100986.47;1256032;23;689;-76
2022/10/10 03:06:17;;;;;;;;;;;;;;;16.13;66.31;100976.84;1247292;23;689;-75
2022/10/10 03:07:07;;;;;;;;;;;;;;;16.14;66.28;100987.47;1248148;23;652;-75
2022/10/10 03:07:58;;;;;;;;;;;;;;;16.14;66.67;100981.22;1254696;23;658;-75
2022/10/10 03:08:48;;;;;;;;;;;;;;;16.15;66.23;100975.72;1256106;23;646;-74
2022/10/10 03:09:39;;;;;;;;;;;;;;;16.13;66.32;100982.22;1253750;23;680;-74
2022/10/10 03:10:29;;;;;;;;;;;;;;;16.14;66.08;100976.69;1256192;23;653;-74
2022/10/10 03:11:19;;;;;;;;;;;;;;;16.16;66.59;100977.44;1247505;23;627;-75
2022/10/10 03:12:10;;;;;;;;;;;;;;;16.19;66.72;100977.16;1248982;23;673;-75
2022/10/10 03:13:00;;;;;;;;;;;;;;;16.18;66.38;100975.47;1255090;23;618;-75
2022/10/10 03:13:51;;;;;;;;;;;;;;;16.18;66.22;100978.16;1255398;23;657;-75
2022/10/10 03:14:41;;;;;;;;;;;;;;;16.17;66.76;100976.44;1256149;23;669;-76
2022/10/10 03:15:32;;;;;;;;;;;;;;;16.18;66.73;100971.91;1255986;23;618;-76
2022/10/10 03:16:22;;;;;;;;;;;;;;;16.16;66.93;100972.06;1256127;23;626;-76
2022/10/10 03:17:12;;;;;;;;;;;;;;;16.17;66.52;100968.38;1256106;23;686;-75
2022/10/10 03:18:03;;;;;;;;;;;;;;;16.17;66.74;100967.53;1256274;23;789;-76
2022/10/10 03:18:53;;;;;;;;;;;;;;;16.14;66.61;100974.00;1256168;23;673;-75
2022/10/10 03:19:44;;;;;;;;;;;;;;;16.14;66.48;100968.63;1256152;23;602;-75
2022/10/10 03:20:34;;;;;;;;;;;;;;;16.16;66.72;100977.44;1256176;23;645;-75
2022/10/10 03:21:24;;;;;;;;;;;;;;;16.14;66.44;100965.94;1256033;23;635;-75
2022/10/10 03:22:15;;;;;;;;;;;;;;;16.15;66.19;100966.81;1252914;23;663;-75
2022/10/10 03:23:05;;;;;;;;;;;;;;;16.13;66.88;100972.31;1256219;23;614;-75
2022/10/10 03:23:56;;;;;;;;;;;;;;;16.13;66.57;100975.00;1254115;23;657;-74
2022/10/10 03:24:46;;;;;;;;;;;;;;;16.12;66.22;100975.97;1256285;23;593;-75
2022/10/10 03:25:37;;;;;;;;;;;;;;;16.11;66.63;100968.06;1256171;23;645;-76
2022/10/10 03:26:27;;;;;;;;;;;;;;;16.11;66.46;100973.44;1253760;23;626;-75
2022/10/10 03:27:17;;;;;;;;;;;;;;;16.13;66.89;100977.69;1256115;23;657;-76
2022/10/10 03:28:08;;;;;;;;;;;;;;;16.12;66.69;100970.59;1247368;23;603;-76
2022/10/10 03:28:58;;;;;;;;;;;;;;;16.11;66.42;100965.38;1249033;23;681;-75
2022/10/10 03:29:49;;;;;;;;;;;;;;;16.14;66.64;100976.69;1253315;23;627;-75
2022/10/10 03:30:39;;;;;;;;;;;;;;;16.14;66.49;100967.78;1256041;23;633;-76
2022/10/10 03:31:30;;;;;;;;;;;;;;;16.13;66.19;100966.94;1256138;23;642;-75
2022/10/10 03:32:20;;;;;;;;;;;;;;;16.13;66.68;100966.09;1256163;23;614;-75
2022/10/10 03:33:11;;;;;;;;;;;;;;;16.12;66.43;100965.22;1255974;23;678;-76
2022/10/10 03:34:01;;;;;;;;;;;;;;;16.14;66.47;100968.63;1253665;23;662;-76
2022/10/10 03:34:51;;;;;;;;;;;;;;;16.13;66.54;100961.56;1255979;23;633;-76
2022/10/10 03:35:42;;;;;;;;;;;;;;;16.13;66.21;100963.38;1255440;23;661;-76
2022/10/10 03:36:32;;;;;;;;;;;;;;;16.14;66.63;100962.41;1256040;23;788;-76
2022/10/10 03:37:23;;;;;;;;;;;;;;;16.14;66.33;100965.09;1256127;23;618;-75
2022/10/10 03:38:13;;;;;;;;;;;;;;;16.13;66.42;100969.63;1253614;23;639;-74
2022/10/10 03:39:04;;;;;;;;;;;;;;;16.13;66.23;100963.38;1253507;23;740;-75
2022/10/10 03:39:54;;;;;;;;;;;;;;;16.13;66.70;100966.94;1256260;23;660;-76
2022/10/10 03:40:45;;;;;;;;;;;;;;;16.12;66.19;100962.53;1256211;23;692;-75
2022/10/10 03:41:35;;;;;;;;;;;;;;;16.10;66.65;100961.00;1256224;23;601;-75
2022/10/10 03:42:25;;;;;;;;;;;;;;;16.09;66.18;100960.13;1255946;23;755;-74
2022/10/10 03:43:16;;;;;;;;;;;;;;;16.11;66.52;100962.69;1256102;23;793;-76
2022/10/10 03:44:06;;;;;;;;;;;;;;;16.13;66.39;100966.09;1256101;23;610;-76
2022/10/10 03:44:57;;;;;;;;;;;;;;;16.12;66.30;100962.53;1255898;23;668;-74
2022/10/10 03:45:47;;;;;;;;;;;;;;;16.11;66.35;100960.88;1253606;23;622;-74
2022/10/10 03:46:38;;;;;;;;;;;;;;;16.13;66.25;100968.78;1253700;23;678;-75
2022/10/10 03:47:28;;;;;;;;;;;;;;;16.11;66.45;100966.25;1256208;23;613;-74
2022/10/10 03:48:18;;;;;;;;;;;;;;;16.09;66.50;100964.66;1256081;23;684;-74
2022/10/10 03:49:09;;;;;;;;;;;;;;;16.07;66.89;100970.16;1256230;23;602;-75
2022/10/10 03:49:59;;;;;;;;;;;;;;;16.10;66.63;100969.91;1256095;23;586;-74
2022/10/10 03:50:50;;;;;;;;;;;;;;;16.12;66.53;100975.97;1255967;23;637;-74
2022/10/10 03:51:40;;;;;;;;;;;;;;;16.08;66.39;100977.25;1253916;23;626;-75
2022/10/10 03:52:30;;;;;;;;;;;;;;;16.08;66.29;100977.25;1256468;23;649;-75
2022/10/10 03:53:21;;;;;;;;;;;;;;;16.08;66.21;100963.81;1256587;23;646;-75
2022/10/10 03:54:11;;;;;;;;;;;;;;;16.10;66.39;100971.75;1256485;23;649;-75
2022/10/10 03:55:02;;;;;;;;;;;;;;;16.09;66.47;100973.59;1256626;23;626;-75
2022/10/10 03:55:52;;;;;;;;;;;;;;;16.07;66.63;100972.84;1256384;23;602;-75
2022/10/10 03:56:43;;;;;;;;;;;;;;;16.07;66.52;100978.22;1256372;23;618;-75
2022/10/10 03:57:33;;;;;;;;;;;;;;;16.08;66.36;100968.34;1256534;23;622;-75
2022/10/10 03:58:24;;;;;;;;;;;;;;;16.07;66.55;100970.16;1256542;23;614;-75
2022/10/10 03:59:14;;;;;;;;;;;;;;;16.08;66.47;100976.41;1256546;23;642;-75
2022/10/10 04:00:04;;;;;;;;;;;;;;;16.08;67.06;100963.81;1256367;23;645;-75
2022/10/10 04:00:55;;;;;;;;;;;;;;;16.07;66.63;100967.47;1255025;23;1145;-75
2022/10/10 04:01:45;;;;;;;;;;;;;;;16.07;66.80;100972.84;1252456;23;997;-75
2022/10/10 04:02:36;;;;;;;;;;;;;;;16.08;66.97;100963.81;1248628;23;1239;-75
2022/10/10 04:03:26;;;;;;;;;;;;;;;16.06;66.38;100965.78;1254051;23;630;-74
2022/10/10 04:04:17;;;;;;;;;;;;;;;16.06;66.35;100960.41;1256374;23;657;-74
2022/10/10 04:05:07;;;;;;;;;;;;;;;16.07;66.93;100966.63;1256553;23;618;-75
2022/10/10 04:05:57;;;;;;;;;;;;;;;16.05;66.57;100961.38;1255813;23;791;-75
2022/10/10 04:06:48;;;;;;;;;;;;;;;16.05;66.84;100964.06;1256466;23;618;-76
2022/10/10 04:07:40;;;;;;;;;;;;;;;16.05;66.57;100961.38;1256456;23;650;-76
2022/10/10 04:08:30;;;;;;;;;;;;;;;16.07;66.69;100959.41;1255523;23;599;-76
2022/10/10 04:09:21;;;;;;;;;;;;;;;16.06;66.82;100964.94;1256429;23;610;-76
2022/10/10 04:10:11;;;;;;;;;;;;;;;16.06;66.52;100971.16;1253900;23;768;-76
2022/10/10 04:11:02;;;;;;;;;;;;;;;16.04;66.64;100966.88;1256437;23;622;-75
2022/10/10 04:11:52;;;;;;;;;;;;;;;16.05;67.02;100973.97;1256522;23;590;-76
2022/10/10 04:12:43;;;;;;;;;;;;;;;16.03;66.62;100967.88;1256499;23;618;-75
2022/10/10 04:13:33;;;;;;;;;;;;;;;16.01;66.63;100969.84;1256518;23;672;-75
2022/10/10 04:14:24;;;;;;;;;;;;;;;16.03;66.58;100962.50;1256313;23;614;-75
2022/10/10 04:15:14;;;;;;;;;;;;;;;16.01;66.95;100962.63;1256333;23;1901;-76
2022/10/10 04:16:04;;;;;;;;;;;;;;;16.01;66.55;100962.63;1256443;23;661;-76
2022/10/10 04:16:55;;;;;;;;;;;;;;;16.01;66.78;100957.25;1256509;23;638;-76
2022/10/10 04:17:45;;;;;;;;;;;;;;;16.03;66.45;100963.34;1253955;23;622;-75
2022/10/10 04:18:36;;;;;;;;;;;;;;;16.04;66.78;100959.69;1256327;23;668;-74
2022/10/10 04:19:26;;;;;;;;;;;;;;;16.04;66.53;100957.00;1256536;23;638;-76
2022/10/10 04:20:17;;;;;;;;;;;;;;;16.04;66.22;100956.13;1255805;23;696;-75
2022/10/10 04:21:07;;;;;;;;;;;;;;;16.01;66.95;100951.88;1253844;23;670;-75
2022/10/10 04:21:57;;;;;;;;;;;;;;;16.01;66.18;100957.25;1256380;23;665;-76
2022/10/10 04:22:48;;;;;;;;;;;;;;;16.01;66.69;100962.63;1256472;23;613;-76
2022/10/10 04:23:40;;;;;;;;;;;;;;;16.00;66.96;100955.53;1256338;23;622;-76
2022/10/10 04:24:30;;;;;;;;;;;;;;;16.01;66.53;100962.63;1255697;23;647;-76
2022/10/10 04:25:20;;;;;;;;;;;;;;;15.98;66.85;100960.19;1256521;23;633;-76
2022/10/10 04:26:11;;;;;;;;;;;;;;;16.00;66.58;100954.69;1256477;23;653;-76